sensor_id;sensor_type;location;lat;lon;timestamp;temperature;humidity
16871;DHT22;8552;48.120;-1.456;2023-12-29T00:00:39;9.10;99.90
16871;DHT22;8552;48.120;-1.456;2023-12-29T00:03:15;9.10;99.90
16871;DHT22;8552;48.120;-1.456;2023-12-29T00:05:40;9.10;99.90
16871;DHT22;8552;48.120;-1.456;2023-12-29T00:08:06;9.10;99.90
16871;DHT22;8552;48.120;-1.456;2023-12-29T00:10:32;9.10;99.90
16871;DHT22;8552;48.120;-1.456;2023-12-29T00:13:00;9.10;99.90
16871;DHT22;8552;48.120;-1.456;2023-12-29T00:15:29;9.10;99.90
16871;DHT22;8552;48.120;-1.456;2023-12-29T00:17:57;9.10;99.90
16871;DHT22;8552;48.120;-1.456;2023-12-29T00:20:25;9.10;99.90
16871;DHT22;8552;48.120;-1.456;2023-12-29T00:22:53;9.10;99.90
16871;DHT22;8552;48.120;-1.456;2023-12-29T00:25:23;9.10;99.90
16871;DHT22;8552;48.120;-1.456;2023-12-29T00:27:54;9.10;99.90
16871;DHT22;8552;48.120;-1.456;2023-12-29T00:30:19;9.20;99.90
16871;DHT22;8552;48.120;-1.456;2023-12-29T00:32:45;9.20;99.90
16871;DHT22;8552;48.120;-1.456;2023-12-29T00:35:11;9.10;99.90
16871;DHT22;8552;48.120;-1.456;2023-12-29T00:37:37;9.20;99.90
16871;DHT22;8552;48.120;-1.456;2023-12-29T00:40:03;9.30;99.90
16871;DHT22;8552;48.120;-1.456;2023-12-29T00:42:30;9.20;99.90
16871;DHT22;8552;48.120;-1.456;2023-12-29T00:44:56;9.20;99.90
16871;DHT22;8552;48.120;-1.456;2023-12-29T00:47:22;9.30;99.90
16871;DHT22;8552;48.120;-1.456;2023-12-29T00:49:51;9.30;99.90
16871;DHT22;8552;48.120;-1.456;2023-12-29T00:52:17;9.40;99.90
16871;DHT22;8552;48.120;-1.456;2023-12-29T00:54:50;9.40;99.90
16871;DHT22;8552;48.120;-1.456;2023-12-29T00:57:32;9.40;99.90
16871;DHT22;8552;48.120;-1.456;2023-12-29T01:00:10;9.50;99.90
16871;DHT22;8552;48.120;-1.456;2023-12-29T01:02:36;9.50;99.90
16871;DHT22;8552;48.120;-1.456;2023-12-29T01:05:02;9.50;99.90
16871;DHT22;8552;48.120;-1.456;2023-12-29T01:07:30;9.50;99.90
16871;DHT22;8552;48.120;-1.456;2023-12-29T01:09:59;9.60;99.90
16871;DHT22;8552;48.120;-1.456;2023-12-29T01:12:29;9.60;99.90
16871;DHT22;8552;48.120;-1.456;2023-12-29T01:14:54;9.60;99.90
16871;DHT22;8552;48.120;-1.456;2023-12-29T01:17:21;9.70;99.90
16871;DHT22;8552;48.120;-1.456;2023-12-29T01:19:49;9.70;99.90
16871;DHT22;8552;48.120;-1.456;2023-12-29T01:22:15;9.70;99.90
16871;DHT22;8552;48.120;-1.456;2023-12-29T01:24:50;9.70;99.90
16871;DHT22;8552;48.120;-1.456;2023-12-29T01:27:23;9.70;99.90
16871;DHT22;8552;48.120;-1.456;2023-12-29T01:29:57;9.80;99.90
16871;DHT22;8552;48.120;-1.456;2023-12-29T01:32:31;9.80;99.90
16871;DHT22;8552;48.120;-1.456;2023-12-29T01:35:00;9.90;99.90
16871;DHT22;8552;48.120;-1.456;2023-12-29T01:37:38;10.00;99.90
16871;DHT22;8552;48.120;-1.456;2023-12-29T01:40:04;9.90;99.90
16871;DHT22;8552;48.120;-1.456;2023-12-29T01:42:50;9.90;99.90
16871;DHT22;8552;48.120;-1.456;2023-12-29T01:45:25;10.00;99.90
16871;DHT22;8552;48.120;-1.456;2023-12-29T01:47:54;10.00;99.90
16871;DHT22;8552;48.120;-1.456;2023-12-29T01:50:21;9.90;99.90
16871;DHT22;8552;48.120;-1.456;2023-12-29T01:52:49;10.00;99.90
16871;DHT22;8552;48.120;-1.456;2023-12-29T01:55:18;9.90;99.90
16871;DHT22;8552;48.120;-1.456;2023-12-29T01:57:44;9.90;99.90
16871;DHT22;8552;48.120;-1.456;2023-12-29T02:00:12;9.90;99.90
16871;DHT22;8552;48.120;-1.456;2023-12-29T02:02:41;9.90;99.90
16871;DHT22;8552;48.120;-1.456;2023-12-29T02:05:07;9.90;99.90
16871;DHT22;8552;48.120;-1.456;2023-12-29T02:07:33;9.80;99.90
16871;DHT22;8552;48.120;-1.456;2023-12-29T02:10:04;9.80;99.90
16871;DHT22;8552;48.120;-1.456;2023-12-29T02:12:35;9.90;99.90
16871;DHT22;8552;48.120;-1.456;2023-12-29T02:15:04;9.90;99.90
16871;DHT22;8552;48.120;-1.456;2023-12-29T02:17:52;9.90;99.90
16871;DHT22;8552;48.120;-1.456;2023-12-29T02:20:28;9.90;99.90
16871;DHT22;8552;48.120;-1.456;2023-12-29T02:22:54;9.90;99.90
16871;DHT22;8552;48.120;-1.456;2023-12-29T02:25:20;9.90;99.90
16871;DHT22;8552;48.120;-1.456;2023-12-29T02:27:51;9.80;99.90
16871;DHT22;8552;48.120;-1.456;2023-12-29T02:30:44;9.80;99.90
16871;DHT22;8552;48.120;-1.456;2023-12-29T02:33:16;9.80;99.90
16871;DHT22;8552;48.120;-1.456;2023-12-29T02:35:45;9.80;99.90
16871;DHT22;8552;48.120;-1.456;2023-12-29T02:38:17;9.80;99.90
16871;DHT22;8552;48.120;-1.456;2023-12-29T02:40:50;9.80;99.90
16871;DHT22;8552;48.120;-1.456;2023-12-29T02:43:16;9.80;99.90
16871;DHT22;8552;48.120;-1.456;2023-12-29T02:45:42;9.80;99.90
16871;DHT22;8552;48.120;-1.456;2023-12-29T02:48:08;9.80;99.90
16871;DHT22;8552;48.120;-1.456;2023-12-29T02:50:36;9.80;99.90
16871;DHT22;8552;48.120;-1.456;2023-12-29T02:53:02;9.80;99.90
16871;DHT22;8552;48.120;-1.456;2023-12-29T02:55:31;9.90;99.90
16871;DHT22;8552;48.120;-1.456;2023-12-29T02:58:17;10.00;99.90
16871;DHT22;8552;48.120;-1.456;2023-12-29T03:00:46;10.00;99.90
16871;DHT22;8552;48.120;-1.456;2023-12-29T03:03:14;10.00;99.90
16871;DHT22;8552;48.120;-1.456;2023-12-29T03:05:40;10.10;99.90
16871;DHT22;8552;48.120;-1.456;2023-12-29T03:08:08;10.00;99.90
16871;DHT22;8552;48.120;-1.456;2023-12-29T03:10:33;10.00;99.90
16871;DHT22;8552;48.120;-1.456;2023-12-29T03:13:02;10.00;99.90
16871;DHT22;8552;48.120;-1.456;2023-12-29T03:15:29;10.00;99.90
16871;DHT22;8552;48.120;-1.456;2023-12-29T03:17:55;9.90;99.90
16871;DHT22;8552;48.120;-1.456;2023-12-29T03:20:21;9.90;99.90
16871;DHT22;8552;48.120;-1.456;2023-12-29T03:22:47;9.90;99.90
16871;DHT22;8552;48.120;-1.456;2023-12-29T03:25:12;9.80;99.90
16871;DHT22;8552;48.120;-1.456;2023-12-29T03:27:38;9.80;99.90
16871;DHT22;8552;48.120;-1.456;2023-12-29T03:30:04;9.80;99.90
16871;DHT22;8552;48.120;-1.456;2023-12-29T03:32:33;9.80;99.90
16871;DHT22;8552;48.120;-1.456;2023-12-29T03:35:06;9.80;99.90
16871;DHT22;8552;48.120;-1.456;2023-12-29T03:37:32;9.80;99.90
16871;DHT22;8552;48.120;-1.456;2023-12-29T03:39:58;9.80;99.90
16871;DHT22;8552;48.120;-1.456;2023-12-29T03:42:23;9.80;99.90
16871;DHT22;8552;48.120;-1.456;2023-12-29T03:44:49;9.80;99.90
16871;DHT22;8552;48.120;-1.456;2023-12-29T03:47:15;9.90;99.90
16871;DHT22;8552;48.120;-1.456;2023-12-29T03:49:41;9.90;99.90
16871;DHT22;8552;48.120;-1.456;2023-12-29T03:52:06;9.90;99.90
16871;DHT22;8552;48.120;-1.456;2023-12-29T03:54:32;10.00;99.90
16871;DHT22;8552;48.120;-1.456;2023-12-29T03:57:01;9.90;99.90
16871;DHT22;8552;48.120;-1.456;2023-12-29T03:59:27;10.00;99.90
16871;DHT22;8552;48.120;-1.456;2023-12-29T04:01:53;9.90;99.90
16871;DHT22;8552;48.120;-1.456;2023-12-29T04:04:21;9.90;99.90
16871;DHT22;8552;48.120;-1.456;2023-12-29T04:06:49;9.80;99.90
16871;DHT22;8552;48.120;-1.456;2023-12-29T04:09:17;9.80;99.90
16871;DHT22;8552;48.120;-1.456;2023-12-29T04:11:43;9.80;99.90
16871;DHT22;8552;48.120;-1.456;2023-12-29T04:14:14;9.80;99.90
16871;DHT22;8552;48.120;-1.456;2023-12-29T04:16:40;9.80;99.90
16871;DHT22;8552;48.120;-1.456;2023-12-29T04:19:08;9.80;99.90
16871;DHT22;8552;48.120;-1.456;2023-12-29T04:21:36;9.80;99.90
16871;DHT22;8552;48.120;-1.456;2023-12-29T04:24:01;9.80;99.90
16871;DHT22;8552;48.120;-1.456;2023-12-29T04:26:35;9.80;99.90
16871;DHT22;8552;48.120;-1.456;2023-12-29T04:29:02;9.80;99.90
16871;DHT22;8552;48.120;-1.456;2023-12-29T04:31:32;9.80;99.90
16871;DHT22;8552;48.120;-1.456;2023-12-29T04:34:03;9.80;99.90
16871;DHT22;8552;48.120;-1.456;2023-12-29T04:36:37;9.90;99.90
16871;DHT22;8552;48.120;-1.456;2023-12-29T04:39:05;9.90;99.90
16871;DHT22;8552;48.120;-1.456;2023-12-29T04:41:31;9.80;99.90
16871;DHT22;8552;48.120;-1.456;2023-12-29T04:44:02;9.70;99.90
16871;DHT22;8552;48.120;-1.456;2023-12-29T04:46:40;9.70;99.90
16871;DHT22;8552;48.120;-1.456;2023-12-29T04:49:09;9.80;99.90
16871;DHT22;8552;48.120;-1.456;2023-12-29T04:51:37;9.80;99.90
16871;DHT22;8552;48.120;-1.456;2023-12-29T04:54:06;9.90;99.90
16871;DHT22;8552;48.120;-1.456;2023-12-29T04:56:40;9.90;99.90
16871;DHT22;8552;48.120;-1.456;2023-12-29T04:59:06;9.90;99.90
16871;DHT22;8552;48.120;-1.456;2023-12-29T05:01:47;9.90;99.90
16871;DHT22;8552;48.120;-1.456;2023-12-29T05:04:46;9.90;99.90
16871;DHT22;8552;48.120;-1.456;2023-12-29T05:07:23;10.00;99.90
16871;DHT22;8552;48.120;-1.456;2023-12-29T05:10:12;10.00;99.90
16871;DHT22;8552;48.120;-1.456;2023-12-29T05:12:41;10.00;99.90
16871;DHT22;8552;48.120;-1.456;2023-12-29T05:20:57;10.00;99.90
16871;DHT22;8552;48.120;-1.456;2023-12-29T05:23:50;10.00;99.90
16871;DHT22;8552;48.120;-1.456;2023-12-29T05:26:34;9.90;99.90
16871;DHT22;8552;48.120;-1.456;2023-12-29T05:29:09;9.90;99.90
16871;DHT22;8552;48.120;-1.456;2023-12-29T05:31:47;9.90;99.90
16871;DHT22;8552;48.120;-1.456;2023-12-29T05:34:21;10.00;99.90
16871;DHT22;8552;48.120;-1.456;2023-12-29T05:37:06;10.00;99.90
16871;DHT22;8552;48.120;-1.456;2023-12-29T05:39:43;10.10;99.90
16871;DHT22;8552;48.120;-1.456;2023-12-29T05:42:18;10.20;99.90
16871;DHT22;8552;48.120;-1.456;2023-12-29T05:44:44;10.20;99.90
16871;DHT22;8552;48.120;-1.456;2023-12-29T05:52:44;10.20;99.90
16871;DHT22;8552;48.120;-1.456;2023-12-29T05:55:17;10.20;99.90
16871;DHT22;8552;48.120;-1.456;2023-12-29T05:57:45;10.20;99.90
16871;DHT22;8552;48.120;-1.456;2023-12-29T06:01:03;10.20;99.90
16871;DHT22;8552;48.120;-1.456;2023-12-29T06:03:54;10.20;99.90
16871;DHT22;8552;48.120;-1.456;2023-12-29T06:06:23;10.20;99.90
16871;DHT22;8552;48.120;-1.456;2023-12-29T06:08:58;10.20;99.90
16871;DHT22;8552;48.120;-1.456;2023-12-29T06:18:23;10.10;99.90
16871;DHT22;8552;48.120;-1.456;2023-12-29T06:21:04;10.10;99.90
16871;DHT22;8552;48.120;-1.456;2023-12-29T06:23:52;10.10;99.90
16871;DHT22;8552;48.120;-1.456;2023-12-29T06:26:35;10.10;99.90
16871;DHT22;8552;48.120;-1.456;2023-12-29T06:29:23;10.00;99.90
16871;DHT22;8552;48.120;-1.456;2023-12-29T06:32:00;10.00;99.90
16871;DHT22;8552;48.120;-1.456;2023-12-29T06:34:35;10.00;99.90
16871;DHT22;8552;48.120;-1.456;2023-12-29T06:37:04;10.00;99.90
16871;DHT22;8552;48.120;-1.456;2023-12-29T06:39:40;10.00;99.90
16871;DHT22;8552;48.120;-1.456;2023-12-29T06:42:08;10.10;99.90
16871;DHT22;8552;48.120;-1.456;2023-12-29T06:44:44;10.00;99.90
16871;DHT22;8552;48.120;-1.456;2023-12-29T06:47:32;10.00;99.90
16871;DHT22;8552;48.120;-1.456;2023-12-29T06:50:04;10.00;99.90
16871;DHT22;8552;48.120;-1.456;2023-12-29T06:52:34;10.00;99.90
16871;DHT22;8552;48.120;-1.456;2023-12-29T06:58:05;10.00;99.90
16871;DHT22;8552;48.120;-1.456;2023-12-29T07:00:41;10.00;99.90
16871;DHT22;8552;48.120;-1.456;2023-12-29T07:07:21;10.00;99.90
16871;DHT22;8552;48.120;-1.456;2023-12-29T07:14:03;10.00;99.90
16871;DHT22;8552;48.120;-1.456;2023-12-29T07:20:09;10.00;99.90
16871;DHT22;8552;48.120;-1.456;2023-12-29T07:30:16;9.90;99.90
16871;DHT22;8552;48.120;-1.456;2023-12-29T07:37:05;10.10;99.90
16871;DHT22;8552;48.120;-1.456;2023-12-29T07:39:59;10.10;99.90
16871;DHT22;8552;48.120;-1.456;2023-12-29T07:42:29;10.00;99.90
16871;DHT22;8552;48.120;-1.456;2023-12-29T07:45:09;10.00;99.90
16871;DHT22;8552;48.120;-1.456;2023-12-29T07:47:35;10.10;99.90
16871;DHT22;8552;48.120;-1.456;2023-12-29T07:50:01;10.10;99.90
16871;DHT22;8552;48.120;-1.456;2023-12-29T07:55:30;10.10;99.90
16871;DHT22;8552;48.120;-1.456;2023-12-29T07:58:15;10.10;99.90
16871;DHT22;8552;48.120;-1.456;2023-12-29T08:00:43;10.10;99.90
16871;DHT22;8552;48.120;-1.456;2023-12-29T08:03:08;10.10;99.90
16871;DHT22;8552;48.120;-1.456;2023-12-29T08:05:34;10.20;99.90
16871;DHT22;8552;48.120;-1.456;2023-12-29T08:08:00;10.20;99.90
16871;DHT22;8552;48.120;-1.456;2023-12-29T08:10:26;10.20;99.90
16871;DHT22;8552;48.120;-1.456;2023-12-29T08:12:51;10.30;99.90
16871;DHT22;8552;48.120;-1.456;2023-12-29T08:15:19;10.30;99.90
16871;DHT22;8552;48.120;-1.456;2023-12-29T08:17:45;10.30;99.90
16871;DHT22;8552;48.120;-1.456;2023-12-29T08:20:11;10.30;99.90
16871;DHT22;8552;48.120;-1.456;2023-12-29T08:22:40;10.30;99.90
16871;DHT22;8552;48.120;-1.456;2023-12-29T08:25:09;10.40;99.90
16871;DHT22;8552;48.120;-1.456;2023-12-29T08:27:37;10.40;99.90
16871;DHT22;8552;48.120;-1.456;2023-12-29T08:30:05;10.40;99.90
16871;DHT22;8552;48.120;-1.456;2023-12-29T08:32:33;10.40;99.90
16871;DHT22;8552;48.120;-1.456;2023-12-29T08:35:02;10.40;99.90
16871;DHT22;8552;48.120;-1.456;2023-12-29T08:37:28;10.40;99.90
16871;DHT22;8552;48.120;-1.456;2023-12-29T08:39:55;10.40;99.90
16871;DHT22;8552;48.120;-1.456;2023-12-29T08:42:25;10.40;99.90
16871;DHT22;8552;48.120;-1.456;2023-12-29T08:44:52;10.50;99.90
16871;DHT22;8552;48.120;-1.456;2023-12-29T08:47:21;10.60;99.90
16871;DHT22;8552;48.120;-1.456;2023-12-29T08:49:47;10.60;99.90
16871;DHT22;8552;48.120;-1.456;2023-12-29T08:52:14;10.60;99.90
16871;DHT22;8552;48.120;-1.456;2023-12-29T08:54:40;10.60;99.90
16871;DHT22;8552;48.120;-1.456;2023-12-29T08:57:06;10.60;99.90
16871;DHT22;8552;48.120;-1.456;2023-12-29T08:59:33;10.80;99.90
16871;DHT22;8552;48.120;-1.456;2023-12-29T09:01:59;10.80;99.90
16871;DHT22;8552;48.120;-1.456;2023-12-29T09:04:25;10.80;99.90
16871;DHT22;8552;48.120;-1.456;2023-12-29T09:06:52;10.90;99.90
16871;DHT22;8552;48.120;-1.456;2023-12-29T09:09:17;10.90;99.90
16871;DHT22;8552;48.120;-1.456;2023-12-29T09:11:44;11.00;99.90
16871;DHT22;8552;48.120;-1.456;2023-12-29T09:14:10;11.00;99.90
16871;DHT22;8552;48.120;-1.456;2023-12-29T09:22:16;11.10;99.90
16871;DHT22;8552;48.120;-1.456;2023-12-29T09:24:42;11.20;99.90
16871;DHT22;8552;48.120;-1.456;2023-12-29T09:27:08;11.20;99.90
16871;DHT22;8552;48.120;-1.456;2023-12-29T09:29:34;11.20;99.90
16871;DHT22;8552;48.120;-1.456;2023-12-29T09:32:00;11.10;99.90
16871;DHT22;8552;48.120;-1.456;2023-12-29T09:34:26;11.10;99.90
16871;DHT22;8552;48.120;-1.456;2023-12-29T09:36:52;11.10;99.90
16871;DHT22;8552;48.120;-1.456;2023-12-29T09:39:17;11.10;99.90
16871;DHT22;8552;48.120;-1.456;2023-12-29T09:41:46;11.10;99.90
16871;DHT22;8552;48.120;-1.456;2023-12-29T09:44:16;11.20;99.90
16871;DHT22;8552;48.120;-1.456;2023-12-29T09:46:52;11.20;99.90
16871;DHT22;8552;48.120;-1.456;2023-12-29T09:49:19;11.20;99.90
16871;DHT22;8552;48.120;-1.456;2023-12-29T09:51:52;11.20;99.90
16871;DHT22;8552;48.120;-1.456;2023-12-29T09:54:19;11.30;99.90
16871;DHT22;8552;48.120;-1.456;2023-12-29T09:56:45;11.40;99.90
16871;DHT22;8552;48.120;-1.456;2023-12-29T09:59:12;11.40;99.90
16871;DHT22;8552;48.120;-1.456;2023-12-29T10:01:45;11.50;99.90
16871;DHT22;8552;48.120;-1.456;2023-12-29T10:04:13;11.50;99.90
16871;DHT22;8552;48.120;-1.456;2023-12-29T10:06:46;11.50;99.90
16871;DHT22;8552;48.120;-1.456;2023-12-29T10:09:17;11.50;99.90
16871;DHT22;8552;48.120;-1.456;2023-12-29T10:11:52;11.60;99.90
16871;DHT22;8552;48.120;-1.456;2023-12-29T10:14:41;11.60;99.90
16871;DHT22;8552;48.120;-1.456;2023-12-29T10:17:39;11.60;99.90
16871;DHT22;8552;48.120;-1.456;2023-12-29T10:20:15;11.70;99.90
16871;DHT22;8552;48.120;-1.456;2023-12-29T10:23:28;11.70;99.90
16871;DHT22;8552;48.120;-1.456;2023-12-29T10:25:45;11.70;99.90
16871;DHT22;8552;48.120;-1.456;2023-12-29T10:28:16;11.70;99.90
16871;DHT22;8552;48.120;-1.456;2023-12-29T10:30:45;11.70;99.90
16871;DHT22;8552;48.120;-1.456;2023-12-29T10:33:19;11.70;99.90
16871;DHT22;8552;48.120;-1.456;2023-12-29T10:36:04;11.80;99.90
16871;DHT22;8552;48.120;-1.456;2023-12-29T10:41:45;11.80;99.90
16871;DHT22;8552;48.120;-1.456;2023-12-29T10:45:04;11.90;99.90
16871;DHT22;8552;48.120;-1.456;2023-12-29T10:47:34;11.80;99.90
16871;DHT22;8552;48.120;-1.456;2023-12-29T10:50:21;11.80;99.90
16871;DHT22;8552;48.120;-1.456;2023-12-29T10:53:11;11.90;99.90
16871;DHT22;8552;48.120;-1.456;2023-12-29T10:55:45;11.90;99.90
16871;DHT22;8552;48.120;-1.456;2023-12-29T10:58:14;12.00;99.90
16871;DHT22;8552;48.120;-1.456;2023-12-29T11:00:41;12.00;99.90
16871;DHT22;8552;48.120;-1.456;2023-12-29T11:10:31;12.20;99.90
16871;DHT22;8552;48.120;-1.456;2023-12-29T11:12:58;12.10;99.90
16871;DHT22;8552;48.120;-1.456;2023-12-29T12:14:51;12.80;99.90
16871;DHT22;8552;48.120;-1.456;2023-12-29T12:17:50;12.80;99.90
16871;DHT22;8552;48.120;-1.456;2023-12-29T12:35:27;12.60;99.90
16871;DHT22;8552;48.120;-1.456;2023-12-29T12:53:48;12.60;99.90
16871;DHT22;8552;48.120;-1.456;2023-12-29T12:56:17;12.60;99.90
16871;DHT22;8552;48.120;-1.456;2023-12-29T12:59:11;12.60;99.90
16871;DHT22;8552;48.120;-1.456;2023-12-29T13:04:59;12.70;99.90
16871;DHT22;8552;48.120;-1.456;2023-12-29T13:15:47;12.60;99.90
16871;DHT22;8552;48.120;-1.456;2023-12-29T13:18:39;12.60;99.90
16871;DHT22;8552;48.120;-1.456;2023-12-29T13:25:05;12.50;99.90
16871;DHT22;8552;48.120;-1.456;2023-12-29T13:27:39;12.50;99.90
16871;DHT22;8552;48.120;-1.456;2023-12-29T13:36:54;12.40;99.90
16871;DHT22;8552;48.120;-1.456;2023-12-29T13:54:45;12.20;99.90
16871;DHT22;8552;48.120;-1.456;2023-12-29T13:57:32;12.20;99.90
16871;DHT22;8552;48.120;-1.456;2023-12-29T14:00:20;12.20;99.90
16871;DHT22;8552;48.120;-1.456;2023-12-29T14:03:40;12.20;99.90
16871;DHT22;8552;48.120;-1.456;2023-12-29T14:06:22;12.20;99.90
16871;DHT22;8552;48.120;-1.456;2023-12-29T14:08:54;12.20;99.90
16871;DHT22;8552;48.120;-1.456;2023-12-29T14:25:29;11.90;99.90
16871;DHT22;8552;48.120;-1.456;2023-12-29T14:28:40;11.90;99.90
16871;DHT22;8552;48.120;-1.456;2023-12-29T14:31:19;11.80;99.90
16871;DHT22;8552;48.120;-1.456;2023-12-29T14:33:47;11.70;99.90
16871;DHT22;8552;48.120;-1.456;2023-12-29T14:36:54;11.60;99.90
16871;DHT22;8552;48.120;-1.456;2023-12-29T14:39:47;11.50;99.90
16871;DHT22;8552;48.120;-1.456;2023-12-29T14:42:22;11.40;99.90
16871;DHT22;8552;48.120;-1.456;2023-12-29T14:45:29;11.30;99.90
16871;DHT22;8552;48.120;-1.456;2023-12-29T14:51:40;11.30;99.90
16871;DHT22;8552;48.120;-1.456;2023-12-29T15:05:11;11.20;99.90
16871;DHT22;8552;48.120;-1.456;2023-12-29T15:07:50;11.20;99.90
16871;DHT22;8552;48.120;-1.456;2023-12-29T15:14:16;11.20;99.90
16871;DHT22;8552;48.120;-1.456;2023-12-29T16:00:12;10.50;99.90
16871;DHT22;8552;48.120;-1.456;2023-12-29T16:08:46;10.20;99.90
16871;DHT22;8552;48.120;-1.456;2023-12-29T16:11:39;10.20;99.90
16871;DHT22;8552;48.120;-1.456;2023-12-29T16:14:40;10.10;99.90
16871;DHT22;8552;48.120;-1.456;2023-12-29T16:23:46;9.80;99.90
16871;DHT22;8552;48.120;-1.456;2023-12-29T16:26:16;9.70;99.90
16871;DHT22;8552;48.120;-1.456;2023-12-29T16:33:21;9.60;99.90
16871;DHT22;8552;48.120;-1.456;2023-12-29T16:36:45;9.40;99.90
16871;DHT22;8552;48.120;-1.456;2023-12-29T16:50:49;9.00;99.90
16871;DHT22;8552;48.120;-1.456;2023-12-29T16:53:15;8.90;99.90
16871;DHT22;8552;48.120;-1.456;2023-12-29T16:55:41;8.90;99.90
16871;DHT22;8552;48.120;-1.456;2023-12-29T16:58:07;8.90;99.90
16871;DHT22;8552;48.120;-1.456;2023-12-29T17:00:36;8.80;99.90
16871;DHT22;8552;48.120;-1.456;2023-12-29T17:03:07;8.70;99.90
16871;DHT22;8552;48.120;-1.456;2023-12-29T17:05:33;8.70;99.90
16871;DHT22;8552;48.120;-1.456;2023-12-29T17:08:01;8.60;99.90
16871;DHT22;8552;48.120;-1.456;2023-12-29T17:10:28;8.50;99.90
16871;DHT22;8552;48.120;-1.456;2023-12-29T17:12:53;8.50;99.90
16871;DHT22;8552;48.120;-1.456;2023-12-29T17:15:19;8.40;99.90
16871;DHT22;8552;48.120;-1.456;2023-12-29T17:18:02;8.40;99.90
16871;DHT22;8552;48.120;-1.456;2023-12-29T17:20:33;8.30;99.90
16871;DHT22;8552;48.120;-1.456;2023-12-29T17:22:59;8.20;99.90
16871;DHT22;8552;48.120;-1.456;2023-12-29T17:25:31;8.20;99.90
16871;DHT22;8552;48.120;-1.456;2023-12-29T17:28:25;8.20;99.90
16871;DHT22;8552;48.120;-1.456;2023-12-29T17:31:13;8.10;99.90
16871;DHT22;8552;48.120;-1.456;2023-12-29T17:34:06;8.00;99.90
16871;DHT22;8552;48.120;-1.456;2023-12-29T17:36:47;8.00;99.90
16871;DHT22;8552;48.120;-1.456;2023-12-29T17:39:35;8.00;99.90
16871;DHT22;8552;48.120;-1.456;2023-12-29T17:42:27;7.90;99.90
16871;DHT22;8552;48.120;-1.456;2023-12-29T17:45:00;7.80;99.90
16871;DHT22;8552;48.120;-1.456;2023-12-29T17:47:46;7.80;99.90
16871;DHT22;8552;48.120;-1.456;2023-12-29T17:50:25;7.70;99.90
16871;DHT22;8552;48.120;-1.456;2023-12-29T18:03:53;7.90;99.90
16871;DHT22;8552;48.120;-1.456;2023-12-29T18:06:21;8.10;99.90
16871;DHT22;8552;48.120;-1.456;2023-12-29T18:08:58;8.10;99.90
16871;DHT22;8552;48.120;-1.456;2023-12-29T18:12:13;8.20;99.90
16871;DHT22;8552;48.120;-1.456;2023-12-29T18:17:58;8.40;99.90
16871;DHT22;8552;48.120;-1.456;2023-12-29T18:20:33;8.40;99.90
16871;DHT22;8552;48.120;-1.456;2023-12-29T18:23:18;8.30;99.90
16871;DHT22;8552;48.120;-1.456;2023-12-29T18:25:47;8.40;99.90
16871;DHT22;8552;48.120;-1.456;2023-12-29T18:28:32;8.40;99.90
16871;DHT22;8552;48.120;-1.456;2023-12-29T18:34:35;8.40;99.90
16871;DHT22;8552;48.120;-1.456;2023-12-29T18:37:45;8.40;99.90
16871;DHT22;8552;48.120;-1.456;2023-12-29T18:40:14;8.40;99.90
16871;DHT22;8552;48.120;-1.456;2023-12-29T18:42:42;8.60;99.90
16871;DHT22;8552;48.120;-1.456;2023-12-29T18:45:11;8.60;99.90
16871;DHT22;8552;48.120;-1.456;2023-12-29T18:47:47;8.60;99.90
16871;DHT22;8552;48.120;-1.456;2023-12-29T18:52:51;8.40;99.90
16871;DHT22;8552;48.120;-1.456;2023-12-29T18:55:45;8.50;99.90
16871;DHT22;8552;48.120;-1.456;2023-12-29T18:58:39;8.40;99.90
16871;DHT22;8552;48.120;-1.456;2023-12-29T19:04:50;8.30;99.90
16871;DHT22;8552;48.120;-1.456;2023-12-29T19:07:19;8.30;99.90
16871;DHT22;8552;48.120;-1.456;2023-12-29T19:09:53;8.10;99.90
16871;DHT22;8552;48.120;-1.456;2023-12-29T19:20:29;7.90;99.90
16871;DHT22;8552;48.120;-1.456;2023-12-29T19:23:16;7.80;99.90
16871;DHT22;8552;48.120;-1.456;2023-12-29T19:25:41;7.70;99.90
16871;DHT22;8552;48.120;-1.456;2023-12-29T19:30:52;7.70;99.90
16871;DHT22;8552;48.120;-1.456;2023-12-29T19:33:21;7.70;99.90
16871;DHT22;8552;48.120;-1.456;2023-12-29T19:35:53;7.70;99.90
16871;DHT22;8552;48.120;-1.456;2023-12-29T19:38:19;7.70;99.90
16871;DHT22;8552;48.120;-1.456;2023-12-29T19:40:48;7.80;99.90
16871;DHT22;8552;48.120;-1.456;2023-12-29T19:43:16;7.70;99.90
16871;DHT22;8552;48.120;-1.456;2023-12-29T19:45:44;7.80;99.90
16871;DHT22;8552;48.120;-1.456;2023-12-29T19:48:10;7.80;99.90
16871;DHT22;8552;48.120;-1.456;2023-12-29T19:50:37;7.80;99.90
16871;DHT22;8552;48.120;-1.456;2023-12-29T19:53:09;7.90;99.90
16871;DHT22;8552;48.120;-1.456;2023-12-29T19:55:34;8.00;99.90
16871;DHT22;8552;48.120;-1.456;2023-12-29T19:58:00;8.00;99.90
16871;DHT22;8552;48.120;-1.456;2023-12-29T20:00:26;8.00;99.90
16871;DHT22;8552;48.120;-1.456;2023-12-29T20:02:52;8.10;99.90
16871;DHT22;8552;48.120;-1.456;2023-12-29T20:05:20;8.10;99.90
16871;DHT22;8552;48.120;-1.456;2023-12-29T20:07:49;8.20;99.90
16871;DHT22;8552;48.120;-1.456;2023-12-29T20:10:16;8.30;99.90
16871;DHT22;8552;48.120;-1.456;2023-12-29T20:12:43;8.20;99.90
16871;DHT22;8552;48.120;-1.456;2023-12-29T20:15:09;8.30;99.90
16871;DHT22;8552;48.120;-1.456;2023-12-29T20:17:35;8.30;99.90
16871;DHT22;8552;48.120;-1.456;2023-12-29T20:20:03;8.30;99.90
16871;DHT22;8552;48.120;-1.456;2023-12-29T20:22:30;8.50;99.90
16871;DHT22;8552;48.120;-1.456;2023-12-29T20:24:57;8.50;99.90
16871;DHT22;8552;48.120;-1.456;2023-12-29T20:27:23;8.50;99.90
16871;DHT22;8552;48.120;-1.456;2023-12-29T20:29:48;8.50;99.90
16871;DHT22;8552;48.120;-1.456;2023-12-29T20:32:14;8.50;99.90
16871;DHT22;8552;48.120;-1.456;2023-12-29T20:34:43;8.40;99.90
16871;DHT22;8552;48.120;-1.456;2023-12-29T20:37:09;8.50;99.90
16871;DHT22;8552;48.120;-1.456;2023-12-29T20:39:35;8.40;99.90
16871;DHT22;8552;48.120;-1.456;2023-12-29T20:42:01;8.50;99.90
16871;DHT22;8552;48.120;-1.456;2023-12-29T20:44:27;8.40;99.90
16871;DHT22;8552;48.120;-1.456;2023-12-29T20:46:55;8.40;99.90
16871;DHT22;8552;48.120;-1.456;2023-12-29T20:49:23;8.50;99.90
16871;DHT22;8552;48.120;-1.456;2023-12-29T20:51:52;8.50;99.90
16871;DHT22;8552;48.120;-1.456;2023-12-29T20:54:18;8.40;99.90
16871;DHT22;8552;48.120;-1.456;2023-12-29T20:56:44;8.40;99.90
16871;DHT22;8552;48.120;-1.456;2023-12-29T20:59:23;8.40;99.90
16871;DHT22;8552;48.120;-1.456;2023-12-29T21:01:55;8.40;99.90
16871;DHT22;8552;48.120;-1.456;2023-12-29T21:04:23;8.40;99.90
16871;DHT22;8552;48.120;-1.456;2023-12-29T21:06:51;8.30;99.90
16871;DHT22;8552;48.120;-1.456;2023-12-29T21:09:20;8.30;99.90
16871;DHT22;8552;48.120;-1.456;2023-12-29T21:11:45;8.30;99.90
16871;DHT22;8552;48.120;-1.456;2023-12-29T21:14:11;8.30;99.90
16871;DHT22;8552;48.120;-1.456;2023-12-29T21:16:37;8.20;99.90
16871;DHT22;8552;48.120;-1.456;2023-12-29T21:19:05;8.30;99.90
16871;DHT22;8552;48.120;-1.456;2023-12-29T21:21:38;8.30;99.90
16871;DHT22;8552;48.120;-1.456;2023-12-29T21:24:05;8.30;99.90
16871;DHT22;8552;48.120;-1.456;2023-12-29T21:26:34;8.40;99.90
16871;DHT22;8552;48.120;-1.456;2023-12-29T21:29:01;8.30;99.90
16871;DHT22;8552;48.120;-1.456;2023-12-29T21:31:28;8.10;99.90
16871;DHT22;8552;48.120;-1.456;2023-12-29T21:33:55;8.10;99.90
16871;DHT22;8552;48.120;-1.456;2023-12-29T21:36:25;8.10;99.90
16871;DHT22;8552;48.120;-1.456;2023-12-29T21:38:52;8.00;99.90
16871;DHT22;8552;48.120;-1.456;2023-12-29T21:41:18;8.00;99.90
16871;DHT22;8552;48.120;-1.456;2023-12-29T21:44:01;7.90;99.90